OPKC/KHI METAR and TAF weather

Enter ICAO airport designator
Station Type Date Time Source
OPKC METAR 2020/01/18 12:30 UTC NOAA

OPKC 181230Z 09006KT 7000 NSC 23/M04 Q1017 NOSIG


Station Type Date Time Source
OPKC Decoded METAR 2020/01/18 12:30 UTC NOAA

Karachi Airport, Pakistan (OPKC) 24-54N 067-08E 22M
Jan 18, 2020 - 07:30 AM EST / 2020.01.18 1230 UTC
Wind: from the E (090 degrees) at 7 MPH (6 KT):0
Visibility: 4 mile(s):0
Temperature: 73 F (23 C)
Dew Point: 24 F (-4 C)
Relative Humidity: 16%
Pressure (altimeter): 30.03 in. Hg (1017 hPa)
ob: OPKC 181230Z 09006KT 7000 NSC 23/M04 Q1017 NOSIG
cycle: 12

Station Type Date Time Source
OPKC TAF 2020/01/18 12:51 UTC NOAA

TAF OPKC 180930Z 1812/1918 06008G18KT 6000 NSC
FM181800 04010KT 6000 NSC
TEMPO 1900/1904 02010KT 4000 FU NSC

Example: see airport list